Time;durP1;ratioP1;P1;durP2;ratioP2;P2;SDS_P1;SDS_P2;PMS_P1;PMS_P2;Temp;Humidity;BMP_temperature;BMP_pressure;BME280_temperature;BME280_humidity;BME280_pressure;Samples;Min_cycle;Max_cycle;Signal;HPM_P1;HPM_P2
2023/09/02 00:01:39;;;;;;;6.10;1.60;;;;;;;17.83;100.00;99071.66;4982404;28;20119;-92
2023/09/02 00:04:05;;;;;;;4.68;1.52;;;;;;;17.72;100.00;99042.59;4978407;28;20050;-92
2023/09/02 00:06:30;;;;;;;6.65;2.20;;;;;;;17.94;100.00;99087.25;4991190;28;20047;-91
2023/09/02 00:08:56;;;;;;;5.07;1.80;;;;;;;17.68;100.00;99075.97;4985938;28;20034;-92
2023/09/02 00:11:23;;;;;;;6.45;1.80;;;;;;;17.72;100.00;99087.44;4974475;28;20057;-91
2023/09/02 00:13:48;;;;;;;5.20;1.90;;;;;;;17.85;100.00;99099.34;4993720;28;20041;-90
2023/09/02 00:16:16;;;;;;;4.13;1.55;;;;;;;17.84;100.00;99086.84;4974038;28;20129;-91
2023/09/02 00:18:45;;;;;;;3.03;2.00;;;;;;;17.84;100.00;99098.47;4975348;28;20137;-91
2023/09/02 00:21:11;;;;;;;3.83;2.00;;;;;;;17.67;100.00;99068.84;4976171;28;20511;-92
2023/09/02 00:23:39;;;;;;;3.35;1.92;;;;;;;17.50;100.00;99058.97;4976409;28;20030;-92
2023/09/02 00:26:05;;;;;;;5.25;1.67;;;;;;;17.59;100.00;99071.94;4974216;28;20042;-92
2023/09/02 00:28:31;;;;;;;4.25;1.92;;;;;;;17.73;100.00;99110.69;4976668;28;20042;-92
2023/09/02 00:30:56;;;;;;;3.83;1.65;;;;;;;17.38;100.00;99057.75;4991264;28;20042;-92
2023/09/02 00:33:22;;;;;;;4.53;1.90;;;;;;;17.28;100.00;99039.47;4991256;28;20077;-93
2023/09/02 00:35:49;;;;;;;4.50;2.10;;;;;;;17.45;100.00;99069.94;4986611;28;20129;-91
2023/09/02 00:38:15;;;;;;;3.70;1.65;;;;;;;17.33;100.00;99043.69;4975157;28;20065;-93
2023/09/02 00:40:49;;;;;;;3.65;1.90;;;;;;;17.51;100.00;99082.22;4976380;28;20125;-93
2023/09/02 00:43:15;;;;;;;4.65;2.28;;;;;;;17.59;100.00;99087.22;4974660;28;20479;-93
2023/09/02 00:45:41;;;;;;;3.25;1.40;;;;;;;17.57;100.00;99079.22;4971273;28;20122;-90
2023/09/02 00:48:06;;;;;;;6.20;1.58;;;;;;;17.31;100.00;99036.66;4984779;28;20042;-91
2023/09/02 00:50:35;;;;;;;4.50;1.70;;;;;;;17.66;100.00;99092.19;4981341;28;20129;-91
2023/09/02 00:53:02;;;;;;;4.35;1.90;;;;;;;17.68;100.00;99089.44;4979754;28;20133;-91
2023/09/02 00:55:28;;;;;;;5.47;2.03;;;;;;;17.39;100.00;99048.75;4992122;28;20046;-90
2023/09/02 00:57:56;;;;;;;3.47;1.67;;;;;;;17.48;100.00;99074.31;4981337;28;20046;-91
2023/09/02 01:00:22;;;;;;;6.43;2.17;;;;;;;17.45;100.00;99085.19;4974374;28;20698;-91
2023/09/02 01:02:49;;;;;;;3.03;1.60;;;;;;;17.34;100.00;99053.47;4993180;28;20717;-90
2023/09/02 01:05:15;;;;;;;6.28;1.98;;;;;;;17.38;100.00;99086.47;4976276;28;20505;-93
2023/09/02 01:07:43;;;;;;;3.08;1.67;;;;;;;17.24;100.00;99055.78;4995331;28;20046;-91
2023/09/02 01:10:10;;;;;;;4.20;1.52;;;;;;;17.51;100.00;99084.03;4980712;28;20508;-92
2023/09/02 01:12:36;;;;;;;2.85;1.58;;;;;;;17.43;100.00;99087.09;4975323;28;20085;-91
2023/09/02 01:15:03;;;;;;;4.70;1.80;;;;;;;17.38;100.00;99075.72;4981884;28;20500;-92
2023/09/02 01:17:29;;;;;;;4.72;1.80;;;;;;;17.08;100.00;99030.59;4973234;28;20081;-93
2023/09/02 01:19:56;;;;;;;6.70;1.98;;;;;;;17.31;100.00;99074.28;4981177;28;20071;-91
2023/09/02 01:22:40;;;;;;;2.92;1.80;;;;;;;17.40;100.00;99092.63;4977759;28;20047;-91
2023/09/02 01:25:16;;;;;;;2.88;1.55;;;;;;;17.32;100.00;99071.50;4991562;28;20390;-92
2023/09/02 01:27:49;;;;;;;2.70;1.67;;;;;;;17.27;100.00;99089.69;4979087;28;20063;-93
2023/09/02 01:30:19;;;;;;;7.38;2.28;;;;;;;17.27;100.00;99102.25;4976027;28;20057;-93
2023/09/02 01:32:49;;;;;;;4.22;1.70;;;;;;;17.16;100.00;99100.97;4976379;28;20074;-92
2023/09/02 01:35:18;;;;;;;5.13;2.28;;;;;;;17.08;100.00;99072.72;4993344;28;20489;-91
2023/09/02 01:37:48;;;;;;;8.07;1.80;;;;;;;17.30;100.00;99107.47;4992896;28;20822;-91
2023/09/02 01:40:22;;;;;;;3.50;1.63;;;;;;;17.06;100.00;99085.34;4981264;28;20094;-91
2023/09/02 01:42:51;;;;;;;7.93;1.80;;;;;;;17.02;100.00;99096.25;4978865;28;20038;-93
2023/09/02 01:45:18;;;;;;;4.85;2.42;;;;;;;16.84;100.00;99068.44;4980104;28;20039;-91
2023/09/02 01:47:45;;;;;;;3.10;1.58;;;;;;;17.00;100.00;99084.72;4982206;28;20050;-91
2023/09/02 01:50:14;;;;;;;3.17;1.75;;;;;;;16.80;100.00;99052.56;4993378;28;20520;-93
2023/09/02 01:52:40;;;;;;;7.00;1.80;;;;;;;16.76;100.00;99041.06;4993850;28;20039;-91
2023/09/02 01:55:07;;;;;;;4.20;1.73;;;;;;;16.68;100.00;99011.03;4984843;28;20066;-92
2023/09/02 01:57:33;;;;;;;4.93;1.73;;;;;;;17.15;100.00;99087.59;4979381;28;20094;-92
2023/09/02 02:00:00;;;;;;;3.63;1.45;;;;;;;17.14;100.00;99083.16;4981489;28;20553;-91
2023/09/02 02:02:26;;;;;;;3.95;1.77;;;;;;;17.06;100.00;99082.66;4980268;28;20057;-92
2023/09/02 02:04:58;;;;;;;2.35;1.65;;;;;;;16.99;100.00;99053.41;4980286;28;20046;-92
2023/09/02 02:07:29;;;;;;;3.92;1.55;;;;;;;16.98;100.00;99091.97;4981646;28;20046;-91
2023/09/02 02:09:59;;;;;;;4.93;1.77;;;;;;;17.08;100.00;99088.84;4996744;28;20119;-92
2023/09/02 02:12:25;;;;;;;4.30;1.80;;;;;;;17.04;100.00;99048.69;4978552;28;20126;-91
2023/09/02 02:14:51;;;;;;;4.07;1.33;;;;;;;17.26;100.00;99077.16;4979511;28;20034;-92
2023/09/02 02:17:18;;;;;;;4.60;1.90;;;;;;;16.92;100.00;99011.69;4977993;28;20043;-92
2023/09/02 02:19:44;;;;;;;5.20;1.90;;;;;;;17.12;100.00;99053.69;4979283;28;20492;-92
2023/09/02 02:22:10;;;;;;;4.00;1.52;;;;;;;17.30;100.00;99068.00;4976137;28;20091;-91
2023/09/02 02:24:36;;;;;;;3.25;2.47;;;;;;;17.27;100.00;99046.69;4977146;28;20038;-92
2023/09/02 02:27:02;;;;;;;6.32;1.83;;;;;;;16.79;100.00;99043.59;4979550;28;20504;-91
2023/09/02 02:29:28;;;;;;;5.30;1.70;;;;;;;16.86;100.00;99076.44;4979934;28;20062;-92
2023/09/02 02:31:55;;;;;;;4.28;2.17;;;;;;;16.67;100.00;99017.31;4973847;28;20488;-93
2023/09/02 02:34:23;;;;;;;4.40;1.75;;;;;;;17.04;100.00;99063.94;4977669;28;20059;-91
2023/09/02 02:36:49;;;;;;;3.47;2.08;;;;;;;17.11;100.00;99061.81;4984055;28;20041;-91
2023/09/02 02:39:15;;;;;;;3.35;1.80;;;;;;;17.08;100.00;99032.41;4994637;28;20492;-92
2023/09/02 02:41:41;;;;;;;4.72;1.70;;;;;;;17.10;100.00;99019.78;4995155;28;20089;-92
2023/09/02 02:44:07;;;;;;;4.70;2.03;;;;;;;17.06;100.00;99037.00;4985419;28;20464;-93
2023/09/02 02:46:33;;;;;;;7.45;2.65;;;;;;;17.24;100.00;99068.34;4978927;28;20469;-92
2023/09/02 02:48:59;;;;;;;3.42;1.63;;;;;;;17.28;100.00;99045.72;4977442;28;20046;-92
2023/09/02 02:51:26;;;;;;;4.90;2.05;;;;;;;17.09;100.00;99029.66;4977076;28;20050;-92
2023/09/02 02:53:52;;;;;;;4.68;1.80;;;;;;;17.07;100.00;99046.78;4979691;28;20138;-91
2023/09/02 02:56:18;;;;;;;4.35;2.15;;;;;;;16.73;100.00;98989.31;4984694;28;20137;-93
2023/09/02 02:58:44;;;;;;;3.05;1.70;;;;;;;16.94;100.00;99041.16;4978944;28;20038;-91
2023/09/02 03:01:11;;;;;;;7.75;1.67;;;;;;;17.12;100.00;99068.94;4980908;28;20050;-93
2023/09/02 03:03:37;;;;;;;2.60;1.42;;;;;;;16.72;100.00;99027.84;5012389;28;20038;-91
2023/09/02 03:06:04;;;;;;;3.63;2.17;;;;;;;16.87;100.00;99066.56;4977870;28;20050;-92
2023/09/02 03:08:32;;;;;;;3.58;1.65;;;;;;;16.93;100.00;99069.81;4997116;28;20049;-92
2023/09/02 03:10:59;;;;;;;3.28;1.75;;;;;;;16.84;100.00;99071.13;4978095;28;20437;-92
2023/09/02 03:13:25;;;;;;;4.18;1.60;;;;;;;16.76;100.00;99062.56;4976838;28;20070;-92
2023/09/02 03:15:51;;;;;;;3.42;1.80;;;;;;;16.82;100.00;99061.41;4976287;28;20047;-93
2023/09/02 03:18:16;;;;;;;3.47;1.50;;;;;;;16.50;100.00;99028.88;4976812;28;20524;-92
2023/09/02 03:20:43;;;;;;;2.65;1.83;;;;;;;16.53;100.00;99039.47;4976495;28;20445;-91
2023/09/02 03:23:08;;;;;;;4.55;1.90;;;;;;;16.44;100.00;99031.88;4994239;28;20042;-90
2023/09/02 03:25:37;;;;;;;4.75;2.25;;;;;;;16.58;100.00;99045.47;4980773;28;20046;-92
2023/09/02 03:28:04;;;;;;;4.93;1.90;;;;;;;16.43;100.00;99039.03;4980493;28;20043;-92
2023/09/02 03:30:30;;;;;;;4.05;1.80;;;;;;;16.61;100.00;99060.56;4978217;28;20401;-91
2023/09/02 03:32:56;;;;;;;6.05;1.85;;;;;;;16.44;100.00;99039.91;4975444;28;20045;-92
2023/09/02 03:35:22;;;;;;;4.45;1.95;;;;;;;16.60;100.00;99066.91;4979576;28;20038;-93
2023/09/02 03:37:48;;;;;;;3.13;1.40;;;;;;;16.53;100.00;99079.75;4974843;28;20531;-91
2023/09/02 03:40:15;;;;;;;4.15;2.00;;;;;;;16.56;100.00;99073.34;4978561;28;20520;-93
2023/09/02 03:42:42;;;;;;;7.03;2.17;;;;;;;16.50;100.00;99046.78;4976685;28;20134;-91
2023/09/02 03:45:10;;;;;;;3.15;1.90;;;;;;;16.51;100.00;99068.19;4994792;28;20038;-90
2023/09/02 03:47:36;;;;;;;7.47;1.73;;;;;;;16.51;100.00;99067.34;4978131;28;20038;-92
2023/09/02 03:50:02;;;;;;;3.38;1.85;;;;;;;16.04;100.00;99019.41;4979664;28;20049;-92
2023/09/02 03:52:28;;;;;;;4.05;2.03;;;;;;;15.94;100.00;99019.81;4976795;28;20046;-92
2023/09/02 03:54:54;;;;;;;6.22;2.33;;;;;;;16.10;100.00;99043.28;4976387;28;20097;-93
2023/09/02 03:57:20;;;;;;;11.48;1.92;;;;;;;15.89;100.00;99011.09;4972922;28;20133;-91
2023/09/02 03:59:47;;;;;;;2.88;1.95;;;;;;;16.38;100.00;99053.63;4973941;28;20122;-92
2023/09/02 04:02:13;;;;;;;6.03;2.20;;;;;;;16.19;100.00;99040.16;4973797;28;20077;-91
2023/09/02 04:04:39;;;;;;;6.18;2.15;;;;;;;16.28;100.00;99069.25;4975337;28;20042;-92
2023/09/02 04:07:05;;;;;;;6.70;1.98;;;;;;;16.27;100.00;99069.34;4976661;28;20049;-90
2023/09/02 04:09:31;;;;;;;5.22;2.15;;;;;;;16.05;100.00;99027.38;4978249;28;20126;-91
2023/09/02 04:11:58;;;;;;;4.65;2.17;;;;;;;16.30;100.00;99069.19;4978647;28;20041;-91
2023/09/02 04:14:23;;;;;;;6.47;2.15;;;;;;;16.48;100.00;99071.03;4991354;28;20046;-91
2023/09/02 04:16:51;;;;;;;4.18;2.13;;;;;;;16.31;100.00;99033.34;4975659;28;20046;-92
2023/09/02 04:19:17;;;;;;;4.25;2.05;;;;;;;16.45;100.00;99059.56;4981699;28;20062;-91
2023/09/02 04:21:43;;;;;;;4.30;2.08;;;;;;;16.37;100.00;99039.34;4976124;28;20113;-92
2023/09/02 04:24:09;;;;;;;6.65;2.05;;;;;;;16.57;100.00;99057.19;4977647;28;20449;-91
2023/09/02 04:26:35;;;;;;;6.68;2.00;;;;;;;16.37;100.00;99038.44;4976427;28;20042;-92
2023/09/02 04:29:01;;;;;;;4.63;1.90;;;;;;;16.43;100.00;99056.94;4974664;28;20046;-92
2023/09/02 04:31:27;;;;;;;4.00;2.78;;;;;;;16.47;100.00;99053.19;4973260;28;20993;-92
2023/09/02 04:33:54;;;;;;;3.30;1.85;;;;;;;16.21;100.00;99049.00;4991124;28;20450;-90
2023/09/02 04:36:20;;;;;;;5.38;2.05;;;;;;;16.33;100.00;99063.66;4979934;28;20043;-91
2023/09/02 04:38:46;;;;;;;5.22;2.22;;;;;;;16.16;100.00;99045.69;4980223;28;20392;-92
2023/09/02 04:41:12;;;;;;;6.72;2.22;;;;;;;16.25;100.00;99068.53;4990227;28;20058;-91
2023/09/02 04:43:38;;;;;;;3.00;2.08;;;;;;;16.02;100.00;99027.50;4979533;28;20433;-89
2023/09/02 04:46:04;;;;;;;3.22;1.83;;;;;;;16.16;100.00;99051.06;4982839;28;20046;-90
2023/09/02 04:48:30;;;;;;;6.00;1.83;;;;;;;15.88;100.00;99051.41;4982408;28;20131;-93
2023/09/02 04:50:58;;;;;;;4.78;1.95;;;;;;;15.95;100.00;99055.56;4977407;28;20123;-92
2023/09/02 04:53:24;;;;;;;3.80;1.90;;;;;;;15.73;100.00;99040.41;4975384;28;20053;-91
2023/09/02 04:55:51;;;;;;;5.10;2.15;;;;;;;15.79;100.00;99050.88;4976127;28;20079;-91
2023/09/02 04:58:20;;;;;;;6.72;2.03;;;;;;;15.68;100.00;99037.03;4981979;28;20031;-92
2023/09/02 05:00:46;;;;;;;4.65;1.92;;;;;;;15.88;100.00;99052.28;4989915;28;20126;-91
2023/09/02 05:03:11;;;;;;;4.53;2.22;;;;;;;15.94;100.00;99059.16;4977341;28;20580;-91
2023/09/02 05:05:37;;;;;;;3.95;2.00;;;;;;;15.78;100.00;99019.63;4977992;28;20038;-94
2023/09/02 05:08:05;;;;;;;3.60;1.60;;;;;;;15.97;100.00;99043.81;4976554;28;20054;-92
2023/09/02 05:10:31;;;;;;;7.05;2.17;;;;;;;16.25;100.00;99090.00;4972755;28;20454;-91
2023/09/02 05:12:57;;;;;;;3.63;1.95;;;;;;;16.14;100.00;99069.03;4975535;28;20129;-93
2023/09/02 05:15:22;;;;;;;6.00;2.15;;;;;;;15.93;100.00;99031.47;4991513;28;20137;-92
2023/09/02 05:17:49;;;;;;;5.78;2.30;;;;;;;16.12;100.00;99061.03;4996118;28;20070;-91
2023/09/02 05:20:15;;;;;;;7.28;3.45;;;;;;;16.13;100.00;99069.94;4989123;28;20094;-91
2023/09/02 05:22:41;;;;;;;5.05;2.20;;;;;;;16.30;100.00;99083.47;4981842;28;20587;-93
2023/09/02 05:25:09;;;;;;;3.60;2.17;;;;;;;16.31;100.00;99085.22;4979949;28;20044;-92
2023/09/02 05:27:37;;;;;;;4.65;1.95;;;;;;;16.22;100.00;99083.84;4982256;28;20038;-91
2023/09/02 05:30:03;;;;;;;6.05;2.10;;;;;;;16.18;100.00;99060.75;4979386;28;20043;-90
2023/09/02 05:32:29;;;;;;;5.43;2.47;;;;;;;16.37;100.00;99073.31;4993572;28;20050;-91
2023/09/02 05:34:55;;;;;;;3.95;2.40;;;;;;;16.60;100.00;99097.31;4977136;28;20038;-92
2023/09/02 05:37:21;;;;;;;3.95;1.92;;;;;;;16.50;100.00;99062.91;4979376;28;20759;-92
2023/09/02 05:39:46;;;;;;;5.93;2.08;;;;;;;16.77;100.00;99087.59;4997163;28;20046;-92
2023/09/02 05:42:14;;;;;;;5.75;1.85;;;;;;;16.90;100.00;99079.88;4979834;28;20074;-92
2023/09/02 05:44:41;;;;;;;6.07;2.08;;;;;;;16.77;100.00;99036.56;4977270;28;20062;-91
2023/09/02 05:47:07;;;;;;;4.47;2.97;;;;;;;16.76;100.00;99035.72;4979755;28;20070;-91
2023/09/02 05:49:35;;;;;;;5.55;2.08;;;;;;;17.08;100.00;99092.38;4981112;28;20062;-92
2023/09/02 05:52:01;;;;;;;2.97;2.00;;;;;;;17.25;100.00;99110.38;4981220;28;20429;-91
2023/09/02 05:54:27;;;;;;;5.72;2.47;;;;;;;17.09;100.00;99061.00;4978812;28;20058;-92
2023/09/02 05:56:52;;;;;;;5.63;2.28;;;;;;;17.43;100.00;99108.59;4979902;28;20049;-91
2023/09/02 05:59:19;;;;;;;5.03;2.47;;;;;;;17.65;100.00;99100.31;5000893;28;20105;-93
2023/09/02 06:01:46;;;;;;;3.88;2.13;;;;;;;17.81;100.00;99093.22;4978282;28;20431;-92
2023/09/02 06:04:12;;;;;;;3.60;2.20;;;;;;;18.04;100.00;99120.78;4983819;28;20042;-91
2023/09/02 06:06:38;;;;;;;3.97;2.33;;;;;;;18.09;100.00;99112.50;4979985;28;20523;-92
2023/09/02 06:09:04;;;;;;;4.75;1.85;;;;;;;18.20;100.00;99116.34;4980751;28;20396;-91
2023/09/02 06:11:30;;;;;;;6.22;2.20;;;;;;;18.20;100.00;99084.03;4981420;28;20038;-91
2023/09/02 06:13:56;;;;;;;5.22;1.83;;;;;;;18.55;100.00;99112.72;4995858;28;20046;-93
2023/09/02 06:16:23;;;;;;;4.25;2.20;;;;;;;18.60;100.00;99092.66;4987185;28;20045;-96
2023/09/02 06:18:49;;;;;;;5.13;2.00;;;;;;;18.73;100.00;99073.13;4991747;28;20047;-91
2023/09/02 06:21:15;;;;;;;4.50;1.92;;;;;;;18.98;100.00;99100.47;4987046;28;20485;-90
2023/09/02 06:23:43;;;;;;;7.22;2.22;;;;;;;19.35;100.00;99121.78;4976906;28;20050;-92
2023/09/02 06:26:09;;;;;;;6.28;2.50;;;;;;;19.22;100.00;99113.53;4977083;28;20477;-92
2023/09/02 06:28:34;;;;;;;2.83;1.92;;;;;;;19.20;100.00;99120.81;4979465;28;20113;-93
2023/09/02 06:31:04;;;;;;;4.55;2.40;;;;;;;18.98;100.00;99105.88;4993928;28;20457;-94
2023/09/02 06:33:32;;;;;;;3.25;2.08;;;;;;;19.16;100.00;99116.56;4977146;28;20038;-90
2023/09/02 06:35:58;;;;;;;5.13;2.75;;;;;;;19.43;100.00;99109.59;4983920;28;20481;-91
2023/09/02 06:38:23;;;;;;;4.15;1.90;;;;;;;19.37;100.00;99064.09;4994234;28;20094;-92
2023/09/02 06:40:49;;;;;;;9.25;2.60;;;;;;;19.72;100.00;99109.75;4976639;28;20126;-91
2023/09/02 06:43:15;;;;;;;4.88;2.22;;;;;;;19.66;100.00;99069.59;4983549;28;20035;-90
2023/09/02 06:45:41;;;;;;;5.22;2.83;;;;;;;20.03;100.00;99089.00;4977730;28;20484;-92
2023/09/02 06:48:07;;;;;;;5.25;2.40;;;;;;;20.27;100.00;99119.91;4981339;28;20046;-91
2023/09/02 06:50:35;;;;;;;5.28;2.83;;;;;;;20.25;100.00;99119.13;4978142;28;20049;-91
2023/09/02 06:53:00;;;;;;;5.72;2.47;;;;;;;20.36;100.00;99109.50;4997330;28;20038;-93
2023/09/02 06:55:26;;;;;;;6.07;2.25;;;;;;;20.16;100.00;99122.38;4986963;28;20042;-93
2023/09/02 06:57:52;;;;;;;5.72;2.38;;;;;;;20.34;100.00;99133.88;4979490;28;20042;-92
2023/09/02 07:00:18;;;;;;;4.05;2.15;;;;;;;20.24;100.00;99108.44;4976042;28;20062;-91
2023/09/02 07:02:44;;;;;;;5.10;2.47;;;;;;;20.53;100.00;99122.81;4975327;28;20039;-92
2023/09/02 07:05:09;;;;;;;4.55;2.30;;;;;;;20.36;100.00;99067.16;4978656;28;20086;-93
2023/09/02 07:07:37;;;;;;;7.75;1.80;;;;;;;20.42;100.00;99069.47;4980990;28;20065;-91
2023/09/02 07:10:03;;;;;;;4.45;2.13;;;;;;;21.15;100.00;99140.59;4977812;28;20039;-93
2023/09/02 07:12:29;;;;;;;4.35;2.00;;;;;;;20.82;100.00;99076.91;4980881;28;20395;-92
2023/09/02 07:14:55;;;;;;;5.30;2.33;;;;;;;21.22;100.00;99125.72;4993614;28;20042;-92
2023/09/02 07:17:21;;;;;;;4.55;2.13;;;;;;;21.40;100.00;99124.47;4984407;28;20047;-92
2023/09/02 07:19:47;;;;;;;5.30;2.22;;;;;;;21.42;100.00;99114.47;4978099;28;20062;-93
2023/09/02 07:22:12;;;;;;;4.53;1.67;;;;;;;21.68;100.00;99136.22;4976797;28;20065;-91
2023/09/02 07:24:40;;;;;;;5.72;1.88;;;;;;;21.67;100.00;99110.16;4976970;28;20066;-92
2023/09/02 07:27:05;;;;;;;4.05;1.75;;;;;;;22.06;100.00;99143.59;4996142;28;20051;-91
2023/09/02 07:29:31;;;;;;;5.28;1.88;;;;;;;22.10;100.00;99137.00;4992576;28;20401;-93
2023/09/02 07:31:57;;;;;;;4.35;2.17;;;;;;;22.35;100.00;99144.31;4973761;28;20035;-94
2023/09/02 07:34:23;;;;;;;3.92;2.00;;;;;;;22.21;100.00;99117.31;4975028;28;20512;-92
2023/09/02 07:36:49;;;;;;;4.50;2.38;;;;;;;22.23;100.00;99135.22;4975886;28;20492;-93
2023/09/02 07:39:16;;;;;;;4.55;2.03;;;;;;;22.34;100.00;99145.31;4994325;28;20035;-93
2023/09/02 07:41:43;;;;;;;6.18;2.17;;;;;;;22.22;100.00;99141.59;4976406;28;20374;-94
2023/09/02 07:44:09;;;;;;;8.77;2.30;;;;;;;22.05;100.00;99118.34;4978013;28;20432;-93
2023/09/02 07:46:35;;;;;;;7.65;2.03;;;;;;;22.40;100.00;99152.13;4976585;28;20042;-93
2023/09/02 07:49:01;;;;;;;5.18;2.40;;;;;;;22.45;100.00;99139.16;4981095;28;20042;-93
2023/09/02 07:51:27;;;;;;;6.20;2.10;;;;;;;22.55;99.85;99127.53;4979947;28;20393;-94
2023/09/02 07:53:53;;;;;;;5.70;2.30;;;;;;;22.43;98.92;99097.72;4983919;28;20085;-93
2023/09/02 07:56:18;;;;;;;5.35;2.13;;;;;;;22.73;97.45;99125.38;4978096;28;20105;-93
2023/09/02 07:58:48;;;;;;;5.65;2.47;;;;;;;22.52;99.70;99138.59;4980419;28;20035;-93
2023/09/02 08:01:14;;;;;;;4.43;2.00;;;;;;;22.59;98.66;99136.31;4980683;28;20496;-93
2023/09/02 08:03:40;;;;;;;6.53;2.03;;;;;;;22.62;95.93;99137.94;4978405;28;20053;-95
2023/09/02 08:06:06;;;;;;;4.63;2.30;;;;;;;22.66;97.76;99153.00;4992320;28;20042;-94
2023/09/02 08:08:33;;;;;;;4.55;2.63;;;;;;;22.54;95.96;99149.31;4976960;28;20047;-93
2023/09/02 08:11:03;;;;;;;4.22;2.30;;;;;;;22.28;99.60;99143.88;4977770;28;20118;-93
2023/09/02 08:13:29;;;;;;;6.65;2.55;;;;;;;22.61;98.17;99137.06;4993146;28;20046;-94
2023/09/02 08:15:56;;;;;;;8.90;2.55;;;;;;;23.00;97.30;99137.03;4984781;28;20049;-93
2023/09/02 08:18:22;;;;;;;4.68;2.15;;;;;;;23.27;94.95;99129.63;4973706;28;20059;-93
2023/09/02 08:20:48;;;;;;;4.35;1.95;;;;;;;23.31;88.82;99101.28;4974712;28;20057;-93
2023/09/02 08:23:14;;;;;;;4.22;2.30;;;;;;;23.73;90.68;99150.63;4976910;28;20670;-94
2023/09/02 08:25:40;;;;;;;4.68;2.15;;;;;;;23.66;91.28;99096.88;4974688;28;20045;-95
2023/09/02 08:28:06;;;;;;;6.50;2.25;;;;;;;24.12;88.17;99156.75;4981847;28;20043;-94
2023/09/02 08:30:31;;;;;;;4.72;2.10;;;;;;;24.27;89.37;99145.69;4981352;28;20046;-94
2023/09/02 08:32:59;;;;;;;5.38;2.25;;;;;;;24.58;88.84;99155.06;4976784;28;20053;-94
2023/09/02 08:35:24;;;;;;;6.22;1.90;;;;;;;24.12;85.26;99121.44;4983579;28;20031;-94
2023/09/02 08:37:51;;;;;;;4.93;2.10;;;;;;;24.44;83.19;99128.03;4976294;28;20389;-94
2023/09/02 08:40:17;;;;;;;7.35;1.90;;;;;;;24.57;84.08;99135.16;4977049;28;20047;-93
2023/09/02 08:42:44;;;;;;;11.35;2.30;;;;;;;24.84;83.93;99163.00;4995667;28;20109;-94
2023/09/02 08:45:13;;;;;;;7.03;2.40;;;;;;;24.63;82.46;99135.66;4974057;28;20038;-93
2023/09/02 08:47:40;;;;;;;10.52;2.53;;;;;;;25.04;83.60;99164.13;4976196;28;20388;-95
2023/09/02 08:50:09;;;;;;;5.75;1.92;;;;;;;25.18;81.52;99159.31;4995778;28;20038;-93
2023/09/02 08:52:36;;;;;;;3.35;2.15;;;;;;;24.84;82.17;99171.16;4982839;28;20130;-93
2023/09/02 08:55:03;;;;;;;4.93;1.83;;;;;;;25.13;79.12;99155.22;4981675;28;20408;-95
2023/09/02 08:57:29;;;;;;;7.95;2.13;;;;;;;25.21;81.07;99153.63;5003960;28;20046;-93
2023/09/02 08:59:55;;;;;;;3.58;1.98;;;;;;;25.09;79.08;99113.78;4981001;28;20049;-94
2023/09/02 09:02:21;;;;;;;4.50;1.85;;;;;;;25.09;78.58;99146.44;4986682;28;20509;-94
2023/09/02 09:04:48;;;;;;;5.60;2.20;;;;;;;24.82;79.43;99127.75;4986630;28;20039;-95
2023/09/02 09:07:18;;;;;;;4.95;1.98;;;;;;;25.01;77.43;99148.91;4996707;28;20050;-94
2023/09/02 09:09:45;;;;;;;4.50;1.83;;;;;;;25.02;77.88;99116.13;4993406;28;20050;-94
2023/09/02 09:12:13;;;;;;;4.25;1.90;;;;;;;25.40;77.27;99139.38;4980765;28;20043;-95
2023/09/02 09:14:46;;;;;;;4.53;1.90;;;;;;;25.62;75.52;99149.34;4978986;28;20125;-94
2023/09/02 09:17:13;;;;;;;6.00;2.13;;;;;;;25.57;75.69;99140.72;4976497;28;20154;-94
2023/09/02 09:19:39;;;;;;;5.00;2.05;;;;;;;25.60;76.60;99150.47;4979177;28;20039;-93
2023/09/02 09:22:05;;;;;;;5.82;2.60;;;;;;;25.27;75.36;99165.88;4975781;28;20513;-94
2023/09/02 09:24:34;;;;;;;5.25;3.03;;;;;;;25.18;76.57;99145.69;4997048;28;20413;-94
2023/09/02 09:27:02;;;;;;;6.53;2.78;;;;;;;25.36;75.38;99143.34;4984173;28;20038;-93
2023/09/02 09:29:38;;;;;;;5.10;2.75;;;;;;;25.66;77.20;99149.97;5000135;28;20070;-94
2023/09/02 09:32:06;;;;;;;;;;;;;;;26.03;77.72;99165.97;4976613;28;20632;-93
2023/09/02 09:34:36;;;;;;;3.65;2.13;;;;;;;25.86;74.39;99129.22;4998590;28;20290;-94
2023/09/02 09:37:01;;;;;;;4.53;2.60;;;;;;;25.88;77.02;99110.91;5001146;28;20042;-94
2023/09/02 09:39:40;;;;;;;6.38;2.67;;;;;;;25.87;76.41;99140.97;4979553;28;20065;-93
2023/09/02 09:42:06;;;;;;;3.35;2.30;;;;;;;25.29;76.45;99108.59;4988441;28;20042;-93
2023/09/02 09:44:32;;;;;;;5.30;2.20;;;;;;;25.73;77.19;99133.97;4978555;28;20426;-94
2023/09/02 09:46:58;;;;;;;6.10;2.08;;;;;;;25.96;75.72;99148.41;4987177;28;20046;-93
2023/09/02 09:49:25;;;;;;;5.00;2.47;;;;;;;26.32;78.14;99155.28;4979094;28;20081;-95
2023/09/02 09:51:51;;;;;;;5.35;2.47;;;;;;;26.20;71.80;99153.63;4977246;28;20038;-94
2023/09/02 09:54:17;;;;;;;4.22;2.22;;;;;;;26.28;72.30;99140.19;4976272;28;20046;-94
2023/09/02 09:56:45;;;;;;;5.85;2.40;;;;;;;26.08;69.98;99124.69;4982182;28;20452;-94
2023/09/02 09:59:10;;;;;;;3.53;2.10;;;;;;;26.29;67.39;99127.44;4979615;28;20056;-93
2023/09/02 10:01:37;;;;;;;6.78;1.88;;;;;;;26.39;68.80;99164.69;4980156;28;20129;-94
2023/09/02 10:04:06;;;;;;;6.70;1.77;;;;;;;26.54;67.61;99157.00;4982785;28;20063;-95
2023/09/02 10:06:36;;;;;;;4.18;1.65;;;;;;;26.50;65.75;99106.50;4982797;28;20048;-95
2023/09/02 10:09:02;;;;;;;4.78;2.15;;;;;;;26.31;70.68;99133.63;4998225;28;20034;-93
2023/09/02 10:11:28;;;;;;;4.88;2.20;;;;;;;26.48;69.94;99132.13;4978481;28;20085;-95
2023/09/02 10:13:57;;;;;;;6.50;2.17;;;;;;;26.66;70.99;99116.94;4980456;28;20483;-93
2023/09/02 10:16:24;;;;;;;5.10;2.10;;;;;;;26.75;69.32;99131.63;4975010;28;20479;-96
2023/09/02 10:18:50;;;;;;;4.60;2.10;;;;;;;26.96;71.43;99129.72;4982990;28;20042;-94
2023/09/02 10:21:19;;;;;;;7.53;3.13;;;;;;;27.08;70.90;99126.88;4975782;28;20469;-93
2023/09/02 10:23:50;;;;;;;6.03;2.35;;;;;;;26.90;72.06;99113.88;4975332;28;20050;-94
2023/09/02 10:26:22;;;;;;;4.75;2.40;;;;;;;27.23;68.24;99129.13;4981482;28;20042;-94
2023/09/02 10:28:50;;;;;;;4.63;2.10;;;;;;;26.82;62.31;99130.94;4991856;28;20039;-94
2023/09/02 10:31:20;;;;;;;4.13;2.35;;;;;;;26.70;63.99;99136.63;4982080;28;20038;-94
2023/09/02 10:33:52;;;;;;;3.95;2.40;;;;;;;26.94;64.66;99098.97;4978765;28;20041;-93
2023/09/02 10:36:22;;;;;;;4.43;2.25;;;;;;;27.21;64.20;99117.47;4977895;28;20043;-93
2023/09/02 10:38:50;;;;;;;4.93;2.53;;;;;;;27.09;62.22;99085.81;4982988;28;20039;-95
2023/09/02 10:41:17;;;;;;;3.65;1.90;;;;;;;27.29;62.21;99108.59;4975007;28;20035;-91
2023/09/02 10:43:45;;;;;;;3.75;2.17;;;;;;;27.38;60.39;99101.44;4975830;28;20126;-93
2023/09/02 10:46:11;;;;;;;4.45;2.30;;;;;;;27.49;60.04;99108.63;4991823;28;20047;-94
2023/09/02 10:48:41;;;;;;;5.28;2.50;;;;;;;27.27;59.47;99072.38;4986105;28;20046;-95
2023/09/02 10:51:08;;;;;;;3.63;2.33;;;;;;;27.61;61.05;99100.19;4978761;28;20070;-94
2023/09/02 10:54:04;;;;;;;4.70;2.33;;;;;;;27.73;60.04;99124.63;4986896;28;20035;-95
2023/09/02 10:56:31;;;;;;;5.95;2.00;;;;;;;27.21;59.66;99064.72;4932890;29;20040;-92
2023/09/02 10:58:58;;;;;;;3.75;2.40;;;;;;;27.27;60.16;99116.06;4922576;29;20047;-93
2023/09/02 11:01:24;;;;;;;6.10;2.00;;;;;;;26.72;58.92;99104.59;4922822;29;20409;-94
2023/09/02 11:03:53;;;;;;;6.63;1.92;;;;;;;27.18;60.52;99101.34;4925879;29;20040;-94
2023/09/02 11:06:19;;;;;;;4.13;2.28;;;;;;;27.22;58.59;99108.28;4922135;29;20091;-95
2023/09/02 11:08:47;;;;;;;5.78;2.25;;;;;;;27.47;57.57;99097.84;4926480;29;20498;-94
2023/09/02 11:11:13;;;;;;;5.47;2.10;;;;;;;27.72;59.49;99117.47;4926074;29;20047;-96
2023/09/02 11:14:15;;;;;;;4.00;1.80;;;;;;;27.84;58.37;99114.41;4931326;29;20486;-94
2023/09/02 11:16:42;;;;;;;4.03;1.95;;;;;;;27.87;56.26;99107.84;4919664;29;20092;-95
2023/09/02 11:19:11;;;;;;;4.30;1.73;;;;;;;27.78;54.33;99087.69;4923502;29;20493;-94
2023/09/02 11:21:40;;;;;;;3.67;2.10;;;;;;;27.97;53.89;99116.91;4921338;29;20036;-95
2023/09/02 11:24:16;;;;;;;3.20;1.70;;;;;;;28.04;55.58;99120.81;4923802;29;20052;-93
2023/09/02 11:26:55;;;;;;;4.80;2.08;;;;;;;27.98;55.59;99101.38;4926454;29;20102;-94